Smith Valley, Nevada Weather observations

Data are for 10 minute period ending at time listed.
 Day   Time   Solar   Ave.   Ave.  Ave.  Vector  Max.   Baro.   Total    
  of    of     Rad.   Air    Rel.  Wind   Wind   Wind  Press.  Precip.   
Year   Day            Temp.  Hum.  Speed  Dir.   Gust                    
2026   (PST)  Kw/m2    F      %     mph   deg.    mph    mb.     in.     
-------------------------------------------------------------------------
 244   15:30   0.61   79.2    11   14.9   232    25.5   849.0    0.00 
 244   15:40   0.38   78.2    12   16.7   216    25.4   849.0    0.00 
 244   15:50   0.29   76.8    13   14.6   223    21.1   849.0    0.00 
 244   16:00   0.27   76.0    14   12.9   225    20.4   849.0    0.00 
 244   16:10   0.20   75.3    14   12.8   226    17.5   849.0    0.00 
 244   16:20   0.24   75.0    14   12.7   247    18.8   849.0    0.00 
 244   16:30   0.25   75.0    14   13.8   243    20.1   848.9    0.00 
 244   16:40   0.20   74.5    14   12.9   229    19.2   848.9    0.00 
 244   16:50   0.41   74.8    15   13.5   238    22.6   848.8    0.00 
 244   17:00   0.44   75.6    14   15.6   247    26.6   848.8    0.00 
 244   17:10   0.37   75.4    15   13.6   233    19.8   848.9    0.00 
 244   17:20   0.29   74.7    15   14.7   243    23.0   849.0    0.00 
 244   17:30   0.22   73.7    16   13.5   232    22.8   849.0    0.00 
 244   17:40   0.18   72.7    15   15.1   230    21.9   849.0    0.00 
 244   17:50   0.07   71.7    16   13.9   246    20.8   849.0    0.00 
 244   18:00   0.02   70.5    16   13.6   237    20.3   848.8    0.00 
 244   18:10   0.02   69.1    18   12.0   233    18.5   848.8    0.00 
 244   18:20   0.01   68.6    18   12.1   235    17.0   848.8    0.00 
 244   18:30   0.01   68.0    19    9.6   238    12.8   848.9    0.00 
 244   18:40   0.00   67.4    20   10.1   251    14.9   849.1    0.00 
 244   18:50   0.00   66.8    24    9.7   256    16.0   849.1    0.00 
 244   19:00   0.00   66.5    22    9.7   259    15.9   849.3    0.00 
 244   19:10   0.00   65.8    23    6.6   253     9.4   849.4    0.00 
 244   19:20   0.00   64.6    23    7.2   247    11.6   849.5    0.00 
 244   19:30   0.00   64.6    22    6.8   241     9.0   849.6    0.00 
 244   19:40   0.00   63.8    22    6.2   245     9.6   849.8    0.00 
 244   19:50   0.00   63.3    22    6.5   246     9.7   849.9    0.00 
 244   20:00   0.00   61.8    24    5.0   242     6.4   850.1    0.00 
 244   20:10   0.00   60.2    27    4.9   243     7.3   850.2    0.00 
 244   20:20   0.00   60.8    25    4.0   228     6.8   850.3    0.00 
 244   20:30   0.00   59.6    29    4.0   228     5.2   850.5    0.00 
 244   20:40   0.00   58.8    30    4.3   257     6.6   850.6    0.00 
 244   20:50   0.00   57.8    29    4.1   262     7.6   850.7    0.00 
 244   21:00   0.00   58.5    27    4.3   259     5.7   850.9    0.00 
 244   21:10   0.00   58.9    26    3.2   277     5.7   851.0    0.00 
 244   21:20   0.00   59.5    25    3.0   261     6.8   850.9    0.00 
 244   21:30   0.00   59.0    25    1.4   211     4.2   850.9    0.00 
 244   21:40   0.00   59.0    26    1.3    69     2.7   850.8    0.00 
 244   21:50   0.00   58.9    25    1.6   277     3.7   850.8    0.00 
 244   22:00   0.00   59.0    24    2.7   337     8.2   850.8    0.00 
 244   22:10   0.00   61.3    19    2.0   301     5.8   850.8    0.00 
 244   22:20   0.00   60.2    21    1.6   256     3.6   850.9    0.00 
 244   22:30   0.00   57.2    26    0.6    32     2.5   851.0    0.00 
 244   22:40   0.00   57.2    22    2.0   227     4.3   851.1    0.00 
 244   22:50   0.00   56.9    23    1.2   284     2.5   851.2    0.00 
 244   23:00   0.00   56.8    24    1.1   137     4.2   851.2    0.00 
 244   23:10   0.00   54.6    29    1.2   114     3.6   851.3    0.00 
 244   23:20   0.00   53.4    28    0.7   143     1.9   851.3    0.00 
 244   23:30   0.00   54.0    25    3.3   116     7.4   851.4    0.00 
 244   23:40   0.00   55.3    22    0.7   276     5.0   851.5    0.00 
 244   23:50   0.00   54.9    22    0.4   118     1.8   851.6    0.00 
 245    0:00   0.00   54.7    23    4.3   287     9.7   851.7    0.00 
 245    0:10   0.00   56.3    27    5.6   290     9.7   851.8    0.00 
 245    0:20   0.00   55.7    28    3.4   281     6.0   851.9    0.00 
 245    0:30   0.00   55.0    29    2.6    91     5.5   851.8    0.00 
 245    0:40   0.00   54.6    27    2.5   221     7.6   851.8    0.00 
 245    0:50   0.00   56.8    22    4.1   231     9.0   851.8    0.00 
 245    1:00   0.00   57.2    22    4.2   204     6.1   851.8    0.00 
 245    1:10   0.00   56.5    21    4.6   203     7.4   851.6    0.00 
 245    1:20   0.00   58.1    20    4.2   205    10.3   851.6    0.00 
 245    1:30   0.00   57.9    20    4.6   209     9.0   851.6    0.00 
 245    1:40   0.00   58.6    18    7.6   212    15.3   851.7    0.00 
 245    1:50   0.00   59.2    18    9.1   216    15.0   851.7    0.00 
 245    2:00   0.00   60.0    17    8.4   228    16.4   851.7    0.00 
 245    2:10   0.00   59.8    17    5.7   252     9.8   851.8    0.00 
 245    2:20   0.00   58.6    19    5.2   251     8.8   851.8    0.00 
 245    2:30   0.00   58.7    20    3.9   240    15.0   852.0    0.00 
 245    2:40   0.00   56.3    24    4.3     8     7.7   852.2    0.00 
 245    2:50   0.00   52.6    28    2.3   259     4.7   852.3    0.00 
 245    3:00   0.00   50.8    30    3.9   198     8.2   852.2    0.00 
 245    3:10   0.00   52.2    32    3.3   222     7.9   852.3    0.00 
 245    3:20   0.00   50.8    37    1.7   123     4.1   852.4    0.00 
 245    3:30   0.00   52.0    36    3.3   133     5.0   852.4    0.00 
 245    3:40   0.00   53.3    31    2.4   180     5.6   852.5    0.00 
 245    3:50   0.00   53.2    30    2.5   218     5.7   852.5    0.00 
 245    4:00   0.00   52.5    33    4.0   239     6.0   852.4    0.00 
 245    4:10   0.00   49.8    38    5.4   242     7.1   852.5    0.00 
 245    4:20   0.00   48.0    43    4.0   241     6.1   852.4    0.00 
 245    4:30   0.00   47.0    42    4.6   254     5.7   852.3    0.00 
 245    4:40   0.00   47.9    41    4.5   262     6.9   852.3    0.00 
 245    4:50   0.00   48.4    40    4.2   259     6.7   852.4    0.00 
 245    5:00   0.00   49.1    38    6.0   222    11.3   852.4    0.00 
 245    5:10   0.00   56.9    25   12.3   214    17.8   852.3    0.00 
 245    5:20   0.00   57.0    26    7.2   230    13.2   852.5    0.00 
 245    5:30   0.00   55.7    28    4.8   232     8.1   852.7    0.00 
 245    5:40   0.01   53.6    32    3.2   229     6.0   852.8    0.00 
 245    5:50   0.05   52.5    36    2.6   183     4.2   852.8    0.00 
 245    6:00   0.04   52.6    34    3.5   196     5.3   852.8    0.00 
 245    6:10   0.09   53.4    34    3.4   191     5.0   852.8    0.00 
 245    6:20   0.07   53.7    34    2.5   233     4.1   853.0    0.00 
 245    6:30   0.14   53.6    35    3.5   236     5.3   853.2    0.00 
 245    6:40   0.10   55.5    32    4.6   205     7.8   853.3    0.00 
 245    6:50   0.20   56.7    32    5.3   207     7.4   853.3    0.00 
 245    7:00   0.26   59.3    31    5.8   232    13.6   853.4    0.00 
 245    7:10   0.25   61.3    27    9.7   214    14.2   853.4    0.00 
 245    7:20   0.20   61.5    27   12.1   210    20.9   853.5    0.00 
 245    7:30   0.18   61.1    28   12.2   217    21.0   853.5    0.00 
 245    7:40   0.17   60.9    28   11.2   216    17.0   853.5    0.00 
 245    7:50   0.22   61.0    28   10.9   217    16.7   853.4    0.00 
 245    8:00   0.24   61.5    27   12.9   209    20.1   853.3    0.00 
 245    8:10   0.20   61.3    28   13.5   214    19.4   853.2    0.00 
 245    8:20   0.21   61.4    28   12.2   215    18.8   853.3    0.00 
 245    8:30   0.23   61.4    28   13.7   217    20.6   853.2    0.00 
 245    8:40   0.21   61.4    28   13.7   227    19.2   853.2    0.00 
 245    8:50   0.23   61.7    29   11.7   221    17.8   853.3    0.00 
 245    9:00   0.24   62.1    28   11.5   219    18.8   853.3    0.00 
 245    9:10   0.24   62.7    28   12.7   218    21.3   853.4    0.00 
 245    9:20   0.26   62.9    28   11.2   213    16.4   853.4    0.00 
 245    9:30   0.28   63.3    28   12.4   216    19.3   853.4    0.00 
 245    9:40   0.31   63.5    27   12.2   215    16.0   853.4    0.00 
 245    9:50   0.30   64.1    27   10.7   201    18.0   853.4    0.00 
 245   10:00   0.33   64.1    27   13.5   210    20.0   853.4    0.00 
 245   10:10   0.38   64.3    27   11.9   218    18.5   853.4    0.00 
 245   10:20   0.49   65.4    26   11.9   210    18.4   853.2    0.00 
 245   10:30   0.60   66.5    25   12.2   206    19.1   853.2    0.00 
 245   10:40   0.61   67.1    25    8.9   198    13.2   853.1    0.00 
 245   10:50   0.61   67.9    24   11.7   200    17.9   852.9    0.00 
 245   11:00   0.57   68.1    24   10.6   195    17.3   852.9    0.00 
 245   11:10   0.55   68.2    24    9.6   208    15.4   852.7    0.00 
 245   11:20   0.62   68.6    23   10.2   191    17.5   852.6    0.00 
 245   11:30   0.79   69.8    22   14.7   190    20.1   852.4    0.00 
 245   11:40   0.75   70.7    21   11.0   192    19.0   852.4    0.00 
 245   11:50   0.88   71.4    20   14.0   190    26.7   852.4    0.00 
 245   12:00   0.78   71.8    19   11.6   194    19.6   852.3    0.00 
 245   12:10   0.71   71.7    20   14.6   193    24.5   852.3    0.00 
 245   12:20   0.72   71.4    20   10.6   180    15.6   852.3    0.00 
 245   12:30   0.62   71.9    19   13.8   196    21.8   852.3    0.00 
 245   12:40   0.48   71.5    19   14.7   194    22.5   852.1    0.00 
 245   12:50   0.50   71.5    19   14.7   200    22.0   852.1    0.00 
 245   13:00   0.48   71.6    19   12.0   206    18.4   852.0    0.00 
 245   13:10   0.48   71.4    19   14.6   206    24.9   852.0    0.00 
 245   13:20   0.63   72.1    19   14.1   209    21.8   852.1    0.00 
 245   13:30   0.64   71.9    18   14.2   218    22.5   852.0    0.00 
 245   13:40   0.84   72.1    18   15.1   210    21.6   852.1    0.00 
 245   13:50   1.07   73.8    18   15.1   203    22.5   852.1    0.00 
 245   14:00   1.06   74.9    17   14.7   210    23.1   852.1    0.00 
 245   14:10   0.96   74.7    17   11.9   216    18.8   852.1    0.00 
 245   14:20   0.94   75.0    18   11.2   218    20.6   852.1    0.00 
 245   14:30   0.90   74.7    17   11.7   205    19.5   852.2    0.00 
 245   14:40   0.87   74.9    17   16.1   208    22.4   852.2    0.00 
 245   14:50   0.74   74.2    16   12.3   210    20.0   852.1    0.00 
 245   15:00   0.71   74.0    17   11.1   213    18.9   852.0    0.00 
 245   15:10   0.69   74.0    17   12.4   188    21.0   852.0    0.00 
 245   15:20   0.67   73.8    18   12.5   193    19.8   851.8    0.00 

Return to Smith Valley graphs page.


Western Regional Climate Center,wrcc@dri.edu